Buoy 46533

sailwx.info

Track history (hours):
 
Tides and Currents Weather Stations Pressure Air Temp Water Temp Dewpoint Dewpoint Depression Visibility Wind Speed Wind Dir Waves Ship Positions

Drifting buoy 46533

Last reported at 2015-Aug-27 23:00 UTC. Time now 2015-Aug-28 00:14 UTC.
Position N 50°26' W 137°37'.

Water temperature 16.2 ° C

Date/timePositionNaut miles runAvg speedWind from/ knotsBaromVisibWave heightAir tempDewpointWater temp
2015-Aug-27 23:00N 50°26' W 137°37'1 0.5 16.2
2015-Aug-27 21:00N 50°25' W 137°37'2 0.5 16.1
2015-Aug-27 17:00N 50°25' W 137°35'1 0.3 16.0
2015-Aug-27 15:00N 50°25' W 137°35'1 0.5 16.0
2015-Aug-27 14:00N 50°26' W 137°36'1 1.2 16.0
2015-Aug-27 13:00N 50°25' W 137°38'3 0.4 16.0
2015-Aug-27 04:00N 50°22' W 137°36'3 0.3 16.1
2015-Aug-26 17:00N 50°19' W 137°37'1 0.4 16.2
2015-Aug-26 14:00N 50°20' W 137°36'2 0.2 16.2
2015-Aug-26 05:00N 50°18' W 137°38'1 0.3 16.3
2015-Aug-26 02:00N 50°18' W 137°36'0 0.0 16.3
2015-Aug-26 01:00N 50°18' W 137°36'0 0.2 16.3
2015-Aug-26 00:00N 50°18' W 137°36'1 1.0 16.3
2015-Aug-25 23:00N 50°18' W 137°38'1 0.4 16.3
2015-Aug-25 20:00N 50°17' W 137°38'1 0.4 16.2
2015-Aug-25 17:00N 50°16' W 137°37'1 0.2 16.2
2015-Aug-25 14:00N 50°15' W 137°37'1 0.8 16.2
2015-Aug-25 13:00N 50°14' W 137°37'1 1.2 16.2
2015-Aug-25 12:00N 50°15' W 137°38'0 0.2 16.3
2015-Aug-25 11:00N 50°15' W 137°38'0 0.3 16.2
2015-Aug-25 10:00N 50°15' W 137°38'0 0.1 16.2
2015-Aug-25 06:00N 50°15' W 137°39'0 0.2 16.2
2015-Aug-25 05:00N 50°15' W 137°39'0 0.4 16.2
2015-Aug-25 04:00N 50°15' W 137°40'1 0.6 16.2
2015-Aug-25 03:00N 50°15' W 137°40'0 0.1 16.2
2015-Aug-25 02:00N 50°14' W 137°40'1 0.8 16.3
2015-Aug-25 01:00N 50°14' W 137°41'0 0.1 16.3
2015-Aug-25 00:00N 50°14' W 137°41'1 0.2 16.3
2015-Aug-24 16:00N 50°13' W 137°43'0 0.0 16.2
2015-Aug-24 15:00N 50°13' W 137°43'1 0.4 16.2
2015-Aug-24 12:00N 50°13' W 137°45'0 0.2 16.2
2015-Aug-24 11:00N 50°13' W 137°45'1 0.1 16.2
2015-Aug-24 02:00N 50°12' W 137°46'0 0.1 16.3
2015-Aug-23 22:00N 50°12' W 137°47'1 0.5 16.3
2015-Aug-23 19:00N 50°12' W 137°49'1 0.2 16.3
2015-Aug-23 16:00N 50°12' W 137°49'0 0.0 16.3
2015-Aug-23 15:00N 50°12' W 137°49'0 0.1 16.3
2015-Aug-23 12:00N 50°11' W 137°49'0 0.0 16.3
2015-Aug-23 11:00N 50°11' W 137°49'1 0.1 16.3
2015-Aug-23 06:00N 50°12' W 137°50'1 0.6 16.3
2015-Aug-23 05:00N 50°12' W 137°51'2 0.3 16.3
2015-Aug-23 00:00N 50°11' W 137°52'1 0.6 16.4
2015-Aug-22 23:00N 50°10' W 137°51'0 0.1 16.3
2015-Aug-22 21:00N 50°10' W 137°51'1 0.3 16.3
2015-Aug-22 17:00N 50°12' W 137°50'2 1.5 16.3
2015-Aug-22 16:00N 50°12' W 137°52'1 0.4 16.3
2015-Aug-22 14:00N 50°12' W 137°53'1 0.6 16.3
2015-Aug-22 13:00N 50°12' W 137°54'1 0.2 16.3
2015-Aug-22 05:00N 50°11' W 137°52'1 0.4 16.4
2015-Aug-22 03:00N 50°12' W 137°52'3 1.0 16.4
2015-Aug-22 00:00N 50°13' W 137°57'0 0.0 16.4
2015-Aug-21 23:00N 50°13' W 137°57'2 0.4 16.4
2015-Aug-21 18:00N 50°11' W 137°55'0 0.2 16.3
2015-Aug-21 15:00N 50°11' W 137°54'1 1.0 16.3
2015-Aug-21 14:00N 50°11' W 137°53'0 0.2 16.3
2015-Aug-21 13:00N 50°12' W 137°53'1 0.7 16.3
2015-Aug-21 11:00N 50°12' W 137°55'3 0.4 16.4
2015-Aug-21 02:00N 50°09' W 137°56'0 0.0 16.3
2015-Aug-21 01:00N 50°09' W 137°56'1 0.3 16.3
2015-Aug-20 21:00N 50°09' W 137°54'1 0.8 16.3
2015-Aug-20 20:00N 50°10' W 137°55'1 0.1 16.3
2015-Aug-20 15:00N 50°10' W 137°56'0 0.2 16.2
2015-Aug-20 14:00N 50°10' W 137°56'0 0.1 16.2
2015-Aug-20 11:00N 50°10' W 137°56'0 0.0 16.2
2015-Aug-20 10:00N 50°10' W 137°56'0 0.1 16.2
2015-Aug-20 05:00N 50°09' W 137°56'1 0.1 16.2
2015-Aug-19 21:00N 50°10' W 137°56'1 0.2 16.2
2015-Aug-19 17:00N 50°09' W 137°56'1 1.1 16.2
2015-Aug-19 16:00N 50°09' W 137°55'1 0.7 16.2
2015-Aug-19 15:00N 50°10' W 137°55'1 0.4 16.2
2015-Aug-19 13:00N 50°10' W 137°54'1 0.9 16.2
2015-Aug-19 12:00N 50°11' W 137°55'1 1.4 16.2
2015-Aug-19 11:00N 50°12' W 137°57'0 0.1 16.2
2015-Aug-19 06:00N 50°11' W 137°58'1 0.3 16.2
2015-Aug-19 04:00N 50°11' W 137°57'0 0.1 16.2
2015-Aug-19 03:00N 50°11' W 137°57'1 0.3 16.3
2015-Aug-19 01:00N 50°11' W 137°57'1 0.3 16.2
2015-Aug-18 23:00N 50°11' W 137°56'1 0.2 16.3
2015-Aug-18 20:00N 50°12' W 137°56'2 0.5 16.2
2015-Aug-18 17:00N 50°13' W 137°58'1 0.4 16.1
2015-Aug-18 15:00N 50°12' W 137°58'0 0.1 16.1
2015-Aug-18 11:00N 50°12' W 137°58'1 0.1 16.1
2015-Aug-18 03:00N 50°13' W 137°59'0 0.0 16.1
2015-Aug-18 02:00N 50°13' W 137°59'0 0.1 16.2
2015-Aug-18 00:00N 50°13' W 137°59'   16.2
Track history (hours):
 
Tides and Currents Weather Stations Pressure Air Temp Water Temp Dewpoint Dewpoint Depression Visibility Wind Speed Wind Dir Waves Ship Positions

Drifting buoy 46533

Last reported at 2015-Aug-27 23:00 UTC. Time now 2015-Aug-28 00:14 UTC.
Position N 50°26' W 137°37'.

Water temperature 16.2 ° C

Date/timePositionNaut miles runAvg speedWind from/ knotsBaromVisibWave heightAir tempDewpointWater temp
2015-Aug-27 23:00N 50°26' W 137°37'1 0.5 16.2
2015-Aug-27 21:00N 50°25' W 137°37'2 0.5 16.1
2015-Aug-27 17:00N 50°25' W 137°35'1 0.3 16.0
2015-Aug-27 15:00N 50°25' W 137°35'1 0.5 16.0
2015-Aug-27 14:00N 50°26' W 137°36'1 1.2 16.0
2015-Aug-27 13:00N 50°25' W 137°38'3 0.4 16.0
2015-Aug-27 04:00N 50°22' W 137°36'3 0.3 16.1
2015-Aug-26 17:00N 50°19' W 137°37'1 0.4 16.2
2015-Aug-26 14:00N 50°20' W 137°36'2 0.2 16.2
2015-Aug-26 05:00N 50°18' W 137°38'1 0.3 16.3
2015-Aug-26 02:00N 50°18' W 137°36'0 0.0 16.3
2015-Aug-26 01:00N 50°18' W 137°36'0 0.2 16.3
2015-Aug-26 00:00N 50°18' W 137°36'1 1.0 16.3
2015-Aug-25 23:00N 50°18' W 137°38'1 0.4 16.3
2015-Aug-25 20:00N 50°17' W 137°38'1 0.4 16.2
2015-Aug-25 17:00N 50°16' W 137°37'1 0.2 16.2
2015-Aug-25 14:00N 50°15' W 137°37'1 0.8 16.2
2015-Aug-25 13:00N 50°14' W 137°37'1 1.2 16.2
2015-Aug-25 12:00N 50°15' W 137°38'0 0.2 16.3
2015-Aug-25 11:00N 50°15' W 137°38'0 0.3 16.2
2015-Aug-25 10:00N 50°15' W 137°38'0 0.1 16.2
2015-Aug-25 06:00N 50°15' W 137°39'0 0.2 16.2
2015-Aug-25 05:00N 50°15' W 137°39'0 0.4 16.2
2015-Aug-25 04:00N 50°15' W 137°40'1 0.6 16.2
2015-Aug-25 03:00N 50°15' W 137°40'0 0.1 16.2
2015-Aug-25 02:00N 50°14' W 137°40'1 0.8 16.3
2015-Aug-25 01:00N 50°14' W 137°41'0 0.1 16.3
2015-Aug-25 00:00N 50°14' W 137°41'1 0.2 16.3
2015-Aug-24 16:00N 50°13' W 137°43'0 0.0 16.2
2015-Aug-24 15:00N 50°13' W 137°43'1 0.4 16.2
2015-Aug-24 12:00N 50°13' W 137°45'0 0.2 16.2
2015-Aug-24 11:00N 50°13' W 137°45'1 0.1 16.2
2015-Aug-24 02:00N 50°12' W 137°46'0 0.1 16.3
2015-Aug-23 22:00N 50°12' W 137°47'1 0.5 16.3
2015-Aug-23 19:00N 50°12' W 137°49'1 0.2 16.3
2015-Aug-23 16:00N 50°12' W 137°49'0 0.0 16.3
2015-Aug-23 15:00N 50°12' W 137°49'0 0.1 16.3
2015-Aug-23 12:00N 50°11' W 137°49'0 0.0 16.3
2015-Aug-23 11:00N 50°11' W 137°49'1 0.1 16.3
2015-Aug-23 06:00N 50°12' W 137°50'1 0.6 16.3
2015-Aug-23 05:00N 50°12' W 137°51'2 0.3 16.3
2015-Aug-23 00:00N 50°11' W 137°52'1 0.6 16.4
2015-Aug-22 23:00N 50°10' W 137°51'0 0.1 16.3
2015-Aug-22 21:00N 50°10' W 137°51'1 0.3 16.3
2015-Aug-22 17:00N 50°12' W 137°50'2 1.5 16.3
2015-Aug-22 16:00N 50°12' W 137°52'1 0.4 16.3
2015-Aug-22 14:00N 50°12' W 137°53'1 0.6 16.3
2015-Aug-22 13:00N 50°12' W 137°54'1 0.2 16.3
2015-Aug-22 05:00N 50°11' W 137°52'1 0.4 16.4
2015-Aug-22 03:00N 50°12' W 137°52'3 1.0 16.4
2015-Aug-22 00:00N 50°13' W 137°57'0 0.0 16.4
2015-Aug-21 23:00N 50°13' W 137°57'2 0.4 16.4
2015-Aug-21 18:00N 50°11' W 137°55'0 0.2 16.3
2015-Aug-21 15:00N 50°11' W 137°54'1 1.0 16.3
2015-Aug-21 14:00N 50°11' W 137°53'0 0.2 16.3
2015-Aug-21 13:00N 50°12' W 137°53'1 0.7 16.3
2015-Aug-21 11:00N 50°12' W 137°55'3 0.4 16.4
2015-Aug-21 02:00N 50°09' W 137°56'0 0.0 16.3
2015-Aug-21 01:00N 50°09' W 137°56'1 0.3 16.3
2015-Aug-20 21:00N 50°09' W 137°54'1 0.8 16.3
2015-Aug-20 20:00N 50°10' W 137°55'1 0.1 16.3
2015-Aug-20 15:00N 50°10' W 137°56'0 0.2 16.2
2015-Aug-20 14:00N 50°10' W 137°56'0 0.1 16.2
2015-Aug-20 11:00N 50°10' W 137°56'0 0.0 16.2
2015-Aug-20 10:00N 50°10' W 137°56'0 0.1 16.2
2015-Aug-20 05:00N 50°09' W 137°56'1 0.1 16.2
2015-Aug-19 21:00N 50°10' W 137°56'1 0.2 16.2
2015-Aug-19 17:00N 50°09' W 137°56'1 1.1 16.2
2015-Aug-19 16:00N 50°09' W 137°55'1 0.7 16.2
2015-Aug-19 15:00N 50°10' W 137°55'1 0.4 16.2
2015-Aug-19 13:00N 50°10' W 137°54'1 0.9 16.2
2015-Aug-19 12:00N 50°11' W 137°55'1 1.4 16.2
2015-Aug-19 11:00N 50°12' W 137°57'0 0.1 16.2
2015-Aug-19 06:00N 50°11' W 137°58'1 0.3 16.2
2015-Aug-19 04:00N 50°11' W 137°57'0 0.1 16.2
2015-Aug-19 03:00N 50°11' W 137°57'1 0.3 16.3
2015-Aug-19 01:00N 50°11' W 137°57'1 0.3 16.2
2015-Aug-18 23:00N 50°11' W 137°56'1 0.2 16.3
2015-Aug-18 20:00N 50°12' W 137°56'2 0.5 16.2
2015-Aug-18 17:00N 50°13' W 137°58'1 0.4 16.1
2015-Aug-18 15:00N 50°12' W 137°58'0 0.1 16.1
2015-Aug-18 11:00N 50°12' W 137°58'1 0.1 16.1
2015-Aug-18 03:00N 50°13' W 137°59'0 0.0 16.1
2015-Aug-18 02:00N 50°13' W 137°59'0 0.1 16.2
2015-Aug-18 00:00N 50°13' W 137°59'   16.2

Dump ship's entire track history